createdAt,value
2023-02-01T00:03:54.080Z,84.26
2023-02-01T00:07:43.242Z,84.57
2023-02-01T00:11:44.678Z,84.69
2023-02-01T00:15:33.925Z,85.28
2023-02-01T00:19:24.024Z,85.36
2023-02-01T00:38:26.085Z,85.33
2023-02-01T00:42:19.802Z,85.15
2023-02-01T00:45:44.422Z,84.87
2023-02-01T00:49:33.576Z,84.61
2023-02-01T00:53:22.599Z,84.58
2023-02-01T00:57:01.971Z,84.47
2023-02-01T01:00:13.943Z,84.36
2023-02-01T01:03:46.871Z,84.22
2023-02-01T01:06:54.375Z,84.11
2023-02-01T01:10:43.788Z,84.00
2023-02-01T01:14:22.701Z,83.85
2023-02-01T01:18:12.165Z,83.76
2023-02-01T01:22:01.297Z,83.77
2023-02-01T01:25:49.053Z,83.65
2023-02-01T01:29:38.162Z,83.69
2023-02-01T01:33:13.217Z,83.82
2023-02-01T01:36:53.412Z,83.99
2023-02-01T01:40:42.424Z,84.17
2023-02-01T01:44:49.678Z,84.37
2023-02-01T01:48:35.997Z,84.59
2023-02-01T01:56:01.569Z,84.70
2023-02-01T01:59:50.562Z,84.74
2023-02-01T02:03:24.319Z,84.60
2023-02-01T02:07:01.948Z,84.62
2023-02-01T02:10:50.053Z,84.60
2023-02-01T02:14:39.037Z,84.60
2023-02-01T02:18:40.937Z,84.56
2023-02-01T02:22:45.454Z,84.57
2023-02-01T02:35:16.972Z,84.87
2023-02-01T02:39:42.885Z,85.41
2023-02-01T02:43:33.151Z,85.76
2023-02-01T02:47:23.371Z,86.19
2023-02-01T03:11:01.818Z,89.24
2023-02-01T03:14:47.520Z,89.77
2023-02-01T03:18:35.452Z,90.35
2023-02-01T03:22:06.039Z,90.44
2023-02-01T03:25:56.376Z,90.77
2023-02-01T03:29:47.306Z,91.06
2023-02-01T03:33:43.867Z,91.32
2023-02-01T03:45:37.001Z,91.89
2023-02-01T03:49:26.092Z,92.06
2023-02-01T03:53:15.508Z,92.25
2023-02-01T03:57:04.657Z,92.33
2023-02-01T04:12:51.965Z,91.82
2023-02-01T04:16:40.681Z,91.34
2023-02-01T04:20:29.989Z,90.83
2023-02-01T04:28:14.818Z,89.53
2023-02-01T04:48:04.888Z,87.18
2023-02-01T04:51:45.021Z,85.95
2023-02-01T04:55:32.831Z,86.01
2023-02-01T04:59:19.936Z,85.54
2023-02-01T05:03:07.809Z,85.51
2023-02-01T05:07:25.162Z,85.51
2023-02-01T05:11:14.191Z,84.55
2023-02-01T05:15:03.939Z,84.30
2023-02-01T05:18:46.584Z,84.10
2023-02-01T05:26:00.595Z,84.11
2023-02-01T05:37:51.644Z,84.92
2023-02-01T05:41:40.784Z,85.13
2023-02-01T05:45:29.905Z,85.09
2023-02-01T06:00:24.555Z,84.76
2023-02-01T06:04:13.873Z,84.88
2023-02-01T06:07:55.514Z,84.57
2023-02-01T06:11:44.863Z,84.41
2023-02-01T06:15:33.845Z,84.27
2023-02-01T06:19:24.982Z,84.01
2023-02-01T06:23:13.821Z,83.94
2023-02-01T06:50:10.242Z,81.95
2023-02-01T06:53:59.183Z,81.73
2023-02-01T06:57:48.293Z,81.56
2023-02-01T07:01:37.503Z,81.10
2023-02-01T07:05:26.786Z,80.91
2023-02-01T07:09:16.057Z,80.41
2023-02-01T07:13:05.481Z,80.60
2023-02-01T07:16:55.220Z,80.83
2023-02-01T07:32:34.877Z,80.79
2023-02-01T07:36:24.259Z,80.50
2023-02-01T07:40:06.827Z,80.28
2023-02-01T07:43:56.593Z,80.12
2023-02-01T07:47:45.648Z,80.01
2023-02-01T07:51:43.927Z,79.98
2023-02-01T07:55:32.931Z,80.18
2023-02-01T07:59:19.024Z,79.78
2023-02-01T08:02:58.881Z,79.87
2023-02-01T08:26:13.939Z,78.30
2023-02-01T08:30:03.514Z,77.85
2023-02-01T08:33:52.600Z,77.65
2023-02-01T08:37:41.930Z,77.57
2023-02-01T08:41:24.808Z,77.74
2023-02-01T08:45:13.016Z,77.39
2023-02-01T08:49:15.786Z,76.41
2023-02-01T08:53:09.744Z,76.51
2023-02-01T08:56:38.915Z,75.87
2023-02-01T09:00:29.156Z,75.43
2023-02-01T09:04:24.200Z,75.82
2023-02-01T09:08:13.939Z,75.26
2023-02-01T09:12:04.545Z,75.12
2023-02-01T09:24:28.039Z,75.26
2023-02-01T09:28:18.987Z,74.97
2023-02-01T09:32:07.117Z,75.40
2023-02-01T09:35:56.244Z,75.33
2023-02-01T09:39:49.633Z,75.58
2023-02-01T09:44:06.393Z,76.00
2023-02-01T09:48:07.609Z,75.78
2023-02-01T09:51:49.833Z,76.01
2023-02-01T10:07:39.126Z,76.80
2023-02-01T10:11:33.198Z,76.56
2023-02-01T10:15:36.425Z,76.66
2023-02-01T10:27:13.402Z,74.92
2023-02-01T10:31:02.852Z,74.44
2023-02-01T10:35:04.318Z,74.12
2023-02-01T10:38:59.079Z,73.81
2023-02-01T10:58:25.479Z,72.72
2023-02-01T11:02:03.319Z,72.63
2023-02-01T11:05:52.435Z,72.68
2023-02-01T11:09:30.864Z,73.08
2023-02-01T11:29:06.734Z,73.49
2023-02-01T11:32:27.555Z,73.07
2023-02-01T11:36:04.336Z,72.97
2023-02-01T11:40:03.737Z,73.32
2023-02-01T11:44:00.270Z,73.69
2023-02-01T11:59:40.831Z,75.35
2023-02-01T12:03:47.169Z,75.90
2023-02-01T12:07:49.466Z,76.31
2023-02-01T12:20:07.384Z,76.92
2023-02-01T12:23:55.081Z,76.79
2023-02-01T12:27:42.356Z,76.59
2023-02-01T12:31:48.410Z,76.46
2023-02-01T12:50:55.327Z,76.89
2023-02-01T12:54:52.410Z,77.63
2023-02-01T12:58:56.628Z,78.80
2023-02-01T13:02:46.596Z,79.67
2023-02-01T13:06:35.036Z,80.27
2023-02-01T13:18:38.323Z,81.67
2023-02-01T13:22:35.040Z,81.73
2023-02-01T13:26:28.221Z,82.22
2023-02-01T13:38:35.691Z,82.77
2023-02-01T13:42:34.166Z,83.04
2023-02-01T13:46:32.366Z,83.04
2023-02-01T13:58:25.828Z,82.57
2023-02-01T14:02:20.582Z,82.49
2023-02-01T14:06:12.957Z,82.90
2023-02-01T14:10:34.320Z,83.80
2023-02-01T14:14:24.673Z,84.22
2023-02-01T14:17:53.537Z,84.64
2023-02-01T14:22:33.413Z,84.75
2023-02-01T14:26:22.832Z,85.37
2023-02-01T14:30:18.719Z,86.16
2023-02-01T14:42:26.123Z,87.34
2023-02-01T14:46:20.396Z,87.51
2023-02-01T14:50:12.272Z,88.18
2023-02-01T15:01:57.335Z,88.83
2023-02-01T15:05:46.451Z,88.84
2023-02-01T15:09:39.317Z,89.30
2023-02-01T15:29:02.372Z,90.54
2023-02-01T15:32:51.721Z,90.49
2023-02-01T15:37:00.668Z,90.45
2023-02-01T15:40:53.385Z,90.36
2023-02-01T15:48:19.910Z,90.22
2023-02-01T15:51:51.720Z,90.13
2023-02-01T15:55:39.858Z,89.86
2023-02-01T15:59:09.788Z,89.47
2023-02-01T16:03:05.220Z,89.19
2023-02-01T16:29:13.716Z,86.84
2023-02-01T16:33:02.985Z,86.37
2023-02-01T16:36:41.692Z,85.94
2023-02-01T16:40:13.903Z,85.87
2023-02-01T16:44:02.980Z,85.54
2023-02-01T16:47:52.234Z,85.40
2023-02-01T16:51:41.262Z,85.21
2023-02-01T16:55:30.087Z,85.17
2023-02-01T16:59:19.263Z,84.88
2023-02-01T17:02:51.236Z,84.44
2023-02-01T17:06:26.123Z,84.47
2023-02-01T17:10:08.650Z,84.42
2023-02-01T17:13:57.714Z,84.36
2023-02-01T17:17:45.516Z,84.16
2023-02-01T17:21:34.627Z,83.78
2023-02-01T17:25:24.162Z,83.34
2023-02-01T17:29:05.580Z,83.23
2023-02-01T17:33:10.203Z,82.75
2023-02-01T17:37:06.779Z,82.10
2023-02-01T17:40:17.115Z,82.00
2023-02-01T18:06:34.412Z,80.38
2023-02-01T18:10:12.280Z,80.34
2023-02-01T18:13:54.512Z,80.36
2023-02-01T18:17:36.054Z,80.41
2023-02-01T18:21:25.245Z,80.59
2023-02-01T18:25:14.688Z,80.91
2023-02-01T18:29:03.060Z,81.27
2023-02-01T18:32:53.201Z,81.63
2023-02-01T18:36:42.482Z,81.87
2023-02-01T18:40:32.465Z,82.31
2023-02-01T18:44:05.157Z,82.67
2023-02-01T18:47:29.916Z,82.84
2023-02-01T18:51:19.817Z,82.84
2023-02-01T18:55:09.911Z,83.02
2023-02-01T18:59:01.902Z,83.05
2023-02-01T19:02:51.227Z,82.95
2023-02-01T19:06:40.326Z,82.73
2023-02-01T19:10:29.959Z,82.34
2023-02-01T19:14:11.955Z,81.91
2023-02-01T19:18:01.117Z,81.55
2023-02-01T19:21:50.350Z,81.15
2023-02-01T19:25:39.798Z,81.01
2023-02-01T19:45:05.824Z,79.61
2023-02-01T19:48:54.684Z,79.53
2023-02-01T19:52:43.752Z,79.47
2023-02-01T19:56:32.739Z,79.48
2023-02-01T20:00:20.917Z,79.21
2023-02-01T20:04:10.374Z,79.04
2023-02-01T20:07:42.506Z,79.06
2023-02-01T20:11:30.655Z,79.16
2023-02-01T20:15:20.347Z,79.24
2023-02-01T20:19:09.761Z,79.42
2023-02-01T20:22:41.566Z,79.34
2023-02-01T20:26:31.552Z,78.88
2023-02-01T20:30:21.098Z,78.56
2023-02-01T20:34:10.172Z,78.30
2023-02-01T20:37:36.832Z,77.73
2023-02-01T20:41:26.160Z,77.23
2023-02-01T20:45:06.115Z,76.92
2023-02-01T21:39:51.343Z,87.80
2023-02-01T21:43:40.616Z,87.50
2023-02-01T21:47:29.686Z,87.27
2023-02-01T21:51:18.852Z,87.21
2023-02-01T21:55:07.960Z,87.13
2023-02-01T21:58:57.003Z,86.98
2023-02-01T22:01:54.984Z,87.04
2023-02-01T22:05:44.074Z,86.92
2023-02-01T22:09:34.969Z,86.86
2023-02-01T22:13:25.000Z,87.05
2023-02-01T22:17:14.173Z,87.43
2023-02-01T22:21:04.563Z,87.28
2023-02-01T22:28:51.498Z,87.36
2023-02-01T22:32:40.532Z,87.15
2023-02-01T22:36:28.853Z,86.95
2023-02-01T22:40:07.758Z,86.48
2023-02-01T22:43:47.496Z,86.19
2023-02-01T22:47:39.512Z,85.87
2023-02-01T22:51:21.093Z,85.35
2023-02-01T22:55:10.906Z,84.86
2023-02-01T22:59:01.220Z,83.86
2023-02-01T23:06:30.035Z,82.63
2023-02-01T23:10:02.315Z,81.92
2023-02-01T23:14:10.717Z,82.07
2023-02-01T23:17:59.663Z,81.81
2023-02-01T23:21:36.843Z,82.43
2023-02-01T23:25:18.561Z,83.04
2023-02-01T23:29:07.543Z,83.70
2023-02-01T23:32:56.583Z,84.68
2023-02-01T23:36:46.154Z,85.07
2023-02-01T23:40:35.485Z,85.89
2023-02-01T23:44:24.999Z,86.00
2023-02-01T23:48:13.971Z,87.06
2023-02-01T23:52:31.319Z,87.86
2023-02-01T23:56:20.295Z,88.57
